Cape Hatteras Natl Seashore, North Carolina
Current Conditions -  °F | °C
As of 7:51 PM on Sunday 23 Nov 2014 (Local Time) from KHSE Reporting Station
Light Rain Light Rain  
Wind Chill: 66°   Ceiling: 3300
Heat Index: 66°   Visibility: 6mi
Dew Point: 62°   Wind: 24mph
Humidity: 87%   Direction: 160°SSE
Pressure: 30.02"   Gusts: 33mph
Location:  35.22°N, 75.68°W
Report Text: KHSE 240051Z AUTO 16021G29KT 6SM -RA BR FEW023 SCT028 BKN033 19/17 A3002 RMK AO2 PK WND 16030/0026 RAB15E26B50 SLP164 P0000 T01890167 TSNO
Loading
Personal Weather Stations






























Interactive Weather Map New forecast layout! Learn more

10-Day Weather Forecast

Advertisements
Track Severe Weather on mobile